Time;durP1;ratioP1;P1;durP2;ratioP2;P2;SDS_P1;SDS_P2;PMS_P1;PMS_P2;Temp;Humidity;BMP_temperature;BMP_pressure;BME280_temperature;BME280_humidity;BME280_pressure;Samples;Min_cycle;Max_cycle;Signal;HPM_P1;HPM_P2
2022/03/27 00:00:39;;;;;;;27.13;12.70;;;6.80;99.90;;;;;;4818433;29;20050;-87
2022/03/27 00:03:06;;;;;;;28.97;13.47;;;6.90;99.90;;;;;;4794235;29;20057;-87
2022/03/27 00:05:32;;;;;;;28.43;12.47;;;6.90;99.90;;;;;;4804169;29;20216;-87
2022/03/27 00:07:58;;;;;;;21.40;11.73;;;6.90;99.90;;;;;;4805459;29;20054;-87
2022/03/27 00:10:25;;;;;;;29.47;12.37;;;6.90;99.90;;;;;;4809274;29;20469;-87
2022/03/27 00:12:51;;;;;;;25.73;11.63;;;6.90;99.90;;;;;;4809333;29;20045;-87
2022/03/27 00:15:17;;;;;;;22.87;11.60;;;7.00;99.90;;;;;;4806198;29;20047;-87
2022/03/27 00:17:43;;;;;;;23.63;12.00;;;7.00;99.90;;;;;;4808886;29;20069;-87
2022/03/27 00:20:09;;;;;;;25.27;11.67;;;7.00;99.90;;;;;;4824102;29;20443;-87
2022/03/27 00:22:38;;;;;;;23.07;11.10;;;7.10;99.90;;;;;;4807527;29;20696;-87
2022/03/27 00:25:06;;;;;;;23.73;11.50;;;7.00;99.90;;;;;;4809380;29;20046;-87
2022/03/27 00:27:32;;;;;;;26.27;12.63;;;7.00;99.90;;;;;;4802995;29;20090;-87
2022/03/27 00:29:58;;;;;;;25.73;11.90;;;7.10;99.90;;;;;;4817750;29;20098;-87
2022/03/27 00:32:24;;;;;;;20.77;12.03;;;7.00;99.90;;;;;;4805588;29;20490;-87
2022/03/27 00:34:50;;;;;;;22.53;11.30;;;7.00;99.90;;;;;;4823665;29;20058;-88
2022/03/27 00:37:16;;;;;;;21.30;11.30;;;7.00;99.90;;;;;;4825057;29;20045;-88
2022/03/27 00:39:42;;;;;;;19.37;9.97;;;7.00;99.90;;;;;;4808669;29;20491;-87
2022/03/27 00:42:08;;;;;;;20.03;9.67;;;7.00;99.90;;;;;;4826539;29;20092;-87
2022/03/27 00:44:36;;;;;;;19.43;8.87;;;7.00;99.90;;;;;;4809265;29;20509;-88
2022/03/27 00:47:02;;;;;;;19.43;9.37;;;7.00;99.90;;;;;;4823968;29;20390;-88
2022/03/27 00:49:28;;;;;;;17.60;9.77;;;7.00;99.90;;;;;;4812788;29;20050;-87
2022/03/27 00:51:55;;;;;;;19.70;10.20;;;7.00;99.90;;;;;;4829433;29;20048;-87
2022/03/27 00:54:22;;;;;;;17.67;9.27;;;6.90;99.90;;;;;;4824957;29;20426;-87
2022/03/27 00:56:47;;;;;;;18.30;9.53;;;6.90;99.90;;;;;;4826745;29;20495;-87
2022/03/27 00:59:14;;;;;;;20.47;10.00;;;6.90;99.90;;;;;;4812533;29;20053;-87
2022/03/27 01:01:40;;;;;;;15.53;8.53;;;6.90;99.90;;;;;;4827296;29;20048;-87
2022/03/27 01:04:07;;;;;;;16.10;8.93;;;6.90;99.90;;;;;;4812223;29;20070;-88
2022/03/27 01:06:35;;;;;;;16.33;8.53;;;6.90;99.90;;;;;;4827241;29;20042;-87
2022/03/27 01:11:49;;;;;;;18.07;8.70;;;6.90;99.90;;;;;;4821199;29;20050;-87
2022/03/27 01:14:24;;;;;;;15.93;8.13;;;6.80;99.90;;;;;;4827463;29;20102;-87
2022/03/27 01:17:01;;;;;;;15.97;9.13;;;6.80;99.90;;;;;;4811961;29;20053;-87
2022/03/27 01:19:27;;;;;;;16.00;8.33;;;6.70;99.90;;;;;;4826179;29;20560;-87
2022/03/27 01:21:53;;;;;;;15.97;9.17;;;6.70;99.90;;;;;;4826776;29;20517;-87
2022/03/27 01:24:19;;;;;;;16.23;8.67;;;6.60;99.90;;;;;;4812401;29;20042;-87
2022/03/27 01:26:46;;;;;;;17.00;9.37;;;6.60;99.90;;;;;;4827869;29;20060;-86
2022/03/27 01:29:12;;;;;;;15.60;8.73;;;6.60;99.90;;;;;;4811790;29;20677;-88
2022/03/27 01:31:38;;;;;;;14.70;8.70;;;6.60;99.90;;;;;;4810804;29;20416;-86
2022/03/27 01:34:05;;;;;;;19.00;9.03;;;6.50;99.90;;;;;;4811098;29;20078;-88
2022/03/27 01:36:34;;;;;;;19.13;8.33;;;6.50;99.90;;;;;;4823356;29;20050;-87
2022/03/27 01:39:10;;;;;;;15.23;8.67;;;6.40;99.90;;;;;;4811190;29;20049;-88
2022/03/27 01:41:38;;;;;;;14.90;8.40;;;6.30;99.90;;;;;;4811260;29;20987;-87
2022/03/27 01:44:05;;;;;;;17.27;9.33;;;6.20;99.90;;;;;;4825986;29;20074;-87
2022/03/27 01:46:37;;;;;;;14.87;7.93;;;6.10;99.90;;;;;;4826125;29;20065;-87
2022/03/27 01:49:05;;;;;;;18.00;8.80;;;6.00;99.90;;;;;;4826677;29;20495;-87
2022/03/27 01:51:33;;;;;;;14.97;7.57;;;5.90;99.90;;;;;;4826039;29;20049;-86
2022/03/27 01:53:59;;;;;;;15.33;8.13;;;5.90;99.90;;;;;;4811206;29;20101;-86
2022/03/27 01:56:25;;;;;;;19.17;8.53;;;5.90;99.90;;;;;;4824727;29;20057;-88
2022/03/27 01:58:51;;;;;;;20.10;9.27;;;5.80;99.90;;;;;;4809116;29;20042;-87
2022/03/27 02:01:19;;;;;;;14.90;8.57;;;5.90;99.90;;;;;;4812420;29;20121;-88
2022/03/27 02:03:45;;;;;;;14.57;8.87;;;5.80;99.90;;;;;;4816250;29;20081;-88
2022/03/27 02:06:12;;;;;;;16.93;9.23;;;5.80;99.90;;;;;;4814957;29;20038;-88
2022/03/27 02:08:38;;;;;;;18.07;8.93;;;5.80;99.90;;;;;;4824605;29;20065;-87
2022/03/27 02:11:05;;;;;;;17.87;9.67;;;5.70;99.90;;;;;;4822975;29;20037;-87
2022/03/27 02:13:32;;;;;;;18.53;9.67;;;5.80;99.90;;;;;;4810298;29;20786;-86
2022/03/27 02:15:58;;;;;;;17.33;9.10;;;5.70;99.90;;;;;;4835744;29;20079;-87
2022/03/27 02:18:28;;;;;;;15.50;9.13;;;5.70;99.90;;;;;;4802351;29;20038;-87
2022/03/27 02:20:54;;;;;;;20.77;8.70;;;5.60;99.90;;;;;;4824569;29;20091;-87
2022/03/27 02:23:24;;;;;;;15.83;8.57;;;5.60;99.90;;;;;;4824833;29;20043;-87
2022/03/27 02:25:51;;;;;;;18.33;9.20;;;5.60;99.90;;;;;;4810291;29;20121;-88
2022/03/27 02:28:17;;;;;;;18.73;9.53;;;5.60;99.90;;;;;;4810872;29;20155;-87
2022/03/27 02:30:46;;;;;;;18.77;9.67;;;5.60;99.90;;;;;;4825409;29;20046;-88
2022/03/27 02:33:13;;;;;;;17.50;9.50;;;5.60;99.90;;;;;;4825662;29;20183;-88
2022/03/27 02:35:38;;;;;;;19.00;9.40;;;5.60;99.90;;;;;;4825675;29;20398;-87
2022/03/27 02:38:05;;;;;;;25.60;9.60;;;5.70;99.90;;;;;;4823588;29;20046;-88
2022/03/27 02:40:36;;;;;;;18.10;9.80;;;5.70;99.90;;;;;;4824816;29;20042;-87
2022/03/27 02:43:02;;;;;;;23.23;10.00;;;5.70;99.90;;;;;;4810826;29;20057;-88
2022/03/27 02:45:28;;;;;;;22.03;9.57;;;5.60;99.90;;;;;;4825890;29;20034;-87
2022/03/27 02:47:55;;;;;;;17.47;9.53;;;5.60;99.90;;;;;;4810481;29;20052;-87
2022/03/27 02:50:21;;;;;;;17.77;9.27;;;5.60;99.90;;;;;;4810489;29;20037;-87
2022/03/27 02:52:47;;;;;;;18.77;9.17;;;5.60;99.90;;;;;;4814451;29;20052;-87
2022/03/27 02:55:13;;;;;;;18.40;8.83;;;5.50;99.90;;;;;;4810269;29;20037;-87
2022/03/27 02:57:39;;;;;;;15.30;8.63;;;5.50;99.90;;;;;;4824958;29;20046;-87
2022/03/27 03:00:07;;;;;;;15.67;8.53;;;5.40;99.90;;;;;;4810719;29;20106;-87
2022/03/27 03:02:34;;;;;;;14.47;8.53;;;5.30;99.90;;;;;;4807440;29;20141;-87
2022/03/27 03:04:59;;;;;;;18.33;9.00;;;5.30;99.90;;;;;;4793531;29;20054;-87
2022/03/27 03:07:26;;;;;;;15.03;8.40;;;5.30;99.90;;;;;;4826002;29;20061;-87
2022/03/27 03:09:53;;;;;;;15.57;7.73;;;5.30;99.90;;;;;;4810045;29;20540;-87
2022/03/27 03:12:19;;;;;;;15.77;8.60;;;5.30;99.90;;;;;;4825429;29;20083;-87
2022/03/27 03:14:45;;;;;;;13.77;8.27;;;5.20;99.90;;;;;;4794831;29;20053;-87
2022/03/27 03:17:11;;;;;;;14.23;8.27;;;5.30;99.90;;;;;;4826867;29;20052;-87
2022/03/27 03:19:37;;;;;;;14.07;8.03;;;5.30;99.90;;;;;;4809770;29;20041;-87
2022/03/27 03:22:03;;;;;;;16.30;8.57;;;5.30;99.90;;;;;;4809937;29;20053;-87
2022/03/27 03:24:30;;;;;;;14.83;7.80;;;5.30;99.90;;;;;;4807802;29;20046;-87
2022/03/27 03:26:56;;;;;;;15.47;8.97;;;5.30;99.90;;;;;;4810225;29;20111;-87
2022/03/27 03:29:22;;;;;;;13.47;8.10;;;5.30;99.90;;;;;;4794928;29;20128;-87
2022/03/27 03:31:49;;;;;;;15.60;8.30;;;5.30;99.90;;;;;;4809718;29;20097;-87
2022/03/27 03:34:15;;;;;;;18.53;8.37;;;5.40;99.90;;;;;;4825011;29;20042;-87
2022/03/27 03:36:41;;;;;;;20.03;8.50;;;5.30;99.90;;;;;;4813249;29;20046;-87
2022/03/27 03:39:08;;;;;;;13.93;7.73;;;5.30;99.90;;;;;;4816622;29;20053;-87
2022/03/27 03:41:34;;;;;;;13.93;7.17;;;5.40;99.90;;;;;;4810099;29;20034;-87
2022/03/27 03:44:00;;;;;;;18.27;8.40;;;5.30;99.90;;;;;;4794945;29;20033;-87
2022/03/27 03:46:25;;;;;;;16.47;8.30;;;5.30;99.90;;;;;;4823848;29;20522;-87
2022/03/27 03:48:52;;;;;;;16.53;7.97;;;5.40;99.90;;;;;;4806884;29;20054;-87
2022/03/27 03:51:18;;;;;;;21.73;8.40;;;5.40;99.90;;;;;;4798134;29;20042;-86
2022/03/27 03:53:44;;;;;;;25.03;9.03;;;5.40;99.90;;;;;;4824225;29;20607;-88
2022/03/27 03:56:11;;;;;;;20.73;8.70;;;5.50;99.90;;;;;;4809622;29;20093;-87
2022/03/27 03:58:37;;;;;;;19.60;8.07;;;5.50;99.90;;;;;;4798404;29;20125;-88
2022/03/27 04:01:03;;;;;;;22.07;8.73;;;5.50;99.90;;;;;;4807811;29;20058;-88
2022/03/27 04:03:30;;;;;;;19.30;8.67;;;5.50;99.90;;;;;;4796485;29;20042;-88
2022/03/27 04:05:56;;;;;;;23.50;9.00;;;5.60;99.90;;;;;;4810091;29;20550;-89
2022/03/27 04:08:22;;;;;;;28.50;9.30;;;5.70;99.90;;;;;;4819163;29;20129;-85
2022/03/27 04:10:48;;;;;;;24.27;10.03;;;5.70;99.90;;;;;;4808042;29;20505;-87
2022/03/27 04:13:15;;;;;;;25.47;8.63;;;5.80;99.90;;;;;;4809987;29;20405;-87
2022/03/27 04:15:41;;;;;;;29.33;9.77;;;5.80;99.90;;;;;;4811804;29;20128;-87
2022/03/27 04:18:07;;;;;;;26.27;8.87;;;5.80;99.90;;;;;;4813207;29;20137;-88
2022/03/27 04:20:34;;;;;;;22.43;9.27;;;5.80;99.90;;;;;;4828092;29;20041;-88
2022/03/27 04:23:02;;;;;;;26.80;8.70;;;5.90;99.90;;;;;;4795123;29;20073;-89
2022/03/27 04:25:28;;;;;;;23.97;8.17;;;5.90;99.90;;;;;;4812674;29;20319;-88
2022/03/27 04:27:54;;;;;;;20.43;7.50;;;5.90;99.90;;;;;;4829410;29;20042;-88
2022/03/27 04:30:20;;;;;;;22.33;8.50;;;6.00;99.90;;;;;;4813248;29;20393;-88
2022/03/27 04:32:47;;;;;;;28.93;9.20;;;6.00;99.90;;;;;;4815279;29;20047;-87
2022/03/27 04:35:14;;;;;;;22.17;7.27;;;6.00;99.90;;;;;;4823817;29;20502;-88
2022/03/27 04:37:44;;;;;;;25.13;8.97;;;6.00;99.90;;;;;;4815328;29;20041;-87
2022/03/27 04:40:13;;;;;;;18.10;7.93;;;6.10;99.90;;;;;;4827247;29;20491;-88
2022/03/27 04:42:40;;;;;;;23.37;7.50;;;6.10;99.90;;;;;;4824722;29;20125;-88
2022/03/27 04:45:07;;;;;;;27.70;8.37;;;6.10;99.90;;;;;;4827729;29;20084;-86
2022/03/27 04:47:33;;;;;;;25.80;7.50;;;6.20;99.90;;;;;;4827541;29;20038;-88
2022/03/27 04:49:59;;;;;;;26.07;8.17;;;6.20;99.90;;;;;;4827295;29;20109;-87
2022/03/27 04:52:26;;;;;;;27.27;7.70;;;6.20;99.90;;;;;;4812752;29;20057;-88
2022/03/27 04:54:51;;;;;;;25.07;8.50;;;6.20;99.90;;;;;;4812146;29;20506;-86
2022/03/27 04:57:17;;;;;;;28.73;8.40;;;6.20;99.90;;;;;;4827032;29;20049;-87
2022/03/27 04:59:43;;;;;;;33.63;7.97;;;6.20;99.90;;;;;;4812841;29;20073;-87
2022/03/27 05:02:09;;;;;;;33.63;8.07;;;6.20;99.90;;;;;;4811551;29;20121;-86
2022/03/27 05:04:34;;;;;;;40.63;8.67;;;6.10;99.90;;;;;;4809426;29;20486;-87
2022/03/27 05:07:00;;;;;;;37.20;8.50;;;6.10;99.90;;;;;;4809185;29;20098;-87
2022/03/27 05:09:26;;;;;;;32.00;7.33;;;6.10;99.90;;;;;;4794275;29;20860;-88
2022/03/27 05:11:55;;;;;;;30.27;8.40;;;6.10;99.90;;;;;;4824105;29;20046;-88
2022/03/27 05:14:21;;;;;;;36.37;8.77;;;6.20;99.90;;;;;;4808708;29;20053;-87
2022/03/27 05:16:46;;;;;;;36.97;8.50;;;6.10;99.90;;;;;;4809332;29;20061;-87
2022/03/27 05:19:12;;;;;;;34.37;9.07;;;6.10;99.90;;;;;;4810344;29;20050;-87
2022/03/27 05:21:38;;;;;;;37.53;8.67;;;6.10;99.90;;;;;;4807145;29;20043;-88
2022/03/27 05:24:05;;;;;;;52.30;8.90;;;6.10;99.90;;;;;;4818675;29;20042;-87
2022/03/27 05:26:31;;;;;;;38.90;9.80;;;6.10;99.90;;;;;;4775150;29;20387;-88
2022/03/27 05:28:56;;;;;;;38.40;8.63;;;6.10;99.90;;;;;;4804430;29;20046;-88
2022/03/27 05:31:23;;;;;;;33.30;8.83;;;6.10;99.90;;;;;;4806232;29;20057;-88
2022/03/27 05:33:49;;;;;;;35.47;8.67;;;6.00;99.90;;;;;;4815039;29;20085;-87
2022/03/27 05:36:15;;;;;;;40.60;10.57;;;6.10;99.90;;;;;;4808848;29;20082;-88
2022/03/27 05:38:41;;;;;;;38.80;10.50;;;6.10;99.90;;;;;;4808964;29;20042;-88
2022/03/27 05:41:08;;;;;;;39.30;10.97;;;6.10;99.90;;;;;;4797234;29;20403;-87
2022/03/27 05:43:34;;;;;;;33.00;10.23;;;6.10;99.90;;;;;;4808248;29;20480;-85
2022/03/27 05:46:01;;;;;;;36.00;10.73;;;6.20;99.90;;;;;;4820715;29;20516;-87
2022/03/27 05:48:27;;;;;;;42.37;10.03;;;6.20;99.90;;;;;;4793492;29;20034;-88
2022/03/27 05:50:52;;;;;;;44.40;11.23;;;6.20;99.90;;;;;;4793391;29;20084;-86
2022/03/27 05:53:18;;;;;;;41.47;11.60;;;6.20;99.90;;;;;;4798585;29;20086;-86
2022/03/27 05:55:47;;;;;;;41.20;11.10;;;6.20;99.90;;;;;;4808140;29;20129;-88
2022/03/27 05:58:15;;;;;;;40.93;11.93;;;6.20;99.90;;;;;;4793593;29;20486;-88
2022/03/27 06:00:41;;;;;;;43.30;11.13;;;6.20;99.90;;;;;;4793262;29;20073;-87
2022/03/27 06:03:07;;;;;;;41.73;11.10;;;6.20;99.90;;;;;;4808061;29;20521;-85
2022/03/27 06:05:35;;;;;;;39.30;11.60;;;6.20;99.90;;;;;;4804260;29;20050;-84
2022/03/27 06:08:00;;;;;;;47.40;12.13;;;6.20;99.90;;;;;;4814930;29;20050;-86
2022/03/27 06:10:31;;;;;;;45.20;11.17;;;6.30;99.90;;;;;;4794365;29;20046;-85
2022/03/27 06:12:57;;;;;;;42.17;11.27;;;6.20;99.90;;;;;;4823743;29;20049;-85
2022/03/27 06:15:24;;;;;;;32.87;10.40;;;6.30;99.90;;;;;;4824310;29;20490;-84
2022/03/27 06:17:51;;;;;;;42.70;11.03;;;6.30;99.90;;;;;;4825068;29;20687;-85
2022/03/27 06:20:20;;;;;;;42.73;10.97;;;6.30;99.90;;;;;;4802330;29;20053;-85
2022/03/27 06:22:46;;;;;;;35.47;9.20;;;6.30;99.90;;;;;;4808471;29;20121;-84
2022/03/27 06:25:14;;;;;;;38.30;10.20;;;6.40;99.90;;;;;;4809035;29;20097;-84
2022/03/27 06:27:40;;;;;;;39.10;10.30;;;6.40;99.90;;;;;;4810202;29;20045;-85
2022/03/27 06:30:08;;;;;;;31.93;9.03;;;6.50;99.90;;;;;;4808414;29;20125;-84
2022/03/27 06:32:34;;;;;;;47.30;9.70;;;6.40;99.90;;;;;;4809302;29;20433;-83
2022/03/27 06:35:00;;;;;;;39.60;10.07;;;6.50;99.90;;;;;;4802844;29;20071;-84
2022/03/27 06:37:27;;;;;;;38.30;8.93;;;6.60;99.90;;;;;;4824259;29;20046;-87
2022/03/27 06:39:54;;;;;;;34.10;8.97;;;6.50;99.90;;;;;;4808490;29;20187;-83
2022/03/27 06:42:21;;;;;;;34.40;9.53;;;6.50;99.90;;;;;;4809248;29;20120;-85
2022/03/27 06:44:47;;;;;;;48.13;9.70;;;6.60;99.90;;;;;;4823622;29;20041;-84
2022/03/27 06:47:13;;;;;;;37.83;8.73;;;6.60;99.90;;;;;;4808099;29;20395;-85
2022/03/27 06:49:40;;;;;;;41.97;9.60;;;6.70;99.90;;;;;;4808212;29;20045;-85
2022/03/27 06:52:06;;;;;;;33.33;7.87;;;6.70;99.90;;;;;;4809209;29;20164;-84
2022/03/27 06:54:34;;;;;;;33.63;8.67;;;6.70;99.90;;;;;;4808152;29;20056;-84
2022/03/27 06:56:59;;;;;;;40.17;8.67;;;6.80;99.90;;;;;;4823127;29;20498;-85
2022/03/27 06:59:25;;;;;;;40.17;9.83;;;6.70;99.90;;;;;;4823834;29;20162;-85
2022/03/27 07:04:35;;;;;;;38.23;9.43;;;7.00;99.90;;;;;;4823326;29;20049;-84
2022/03/27 07:07:01;;;;;;;39.27;9.00;;;6.90;99.90;;;;;;4803504;29;20054;-84
2022/03/27 07:09:27;;;;;;;36.50;8.87;;;7.00;99.90;;;;;;4775780;29;20057;-83
2022/03/27 07:11:53;;;;;;;33.50;8.50;;;6.90;99.90;;;;;;4785857;29;20594;-86
2022/03/27 07:14:18;;;;;;;41.23;9.40;;;7.00;99.90;;;;;;4789370;29;20053;-87
2022/03/27 07:16:44;;;;;;;39.77;9.37;;;7.00;99.90;;;;;;4789840;29;20054;-85
2022/03/27 07:19:10;;;;;;;31.70;8.50;;;7.00;99.90;;;;;;4800903;29;20050;-84
2022/03/27 07:21:37;;;;;;;36.13;9.23;;;7.10;99.90;;;;;;4804796;29;20130;-82
2022/03/27 07:24:03;;;;;;;33.07;10.23;;;7.10;99.90;;;;;;4821527;29;20043;-86
2022/03/27 07:26:29;;;;;;;32.83;9.10;;;7.10;99.90;;;;;;4788826;29;20459;-86
2022/03/27 07:28:55;;;;;;;41.23;9.70;;;7.10;99.90;;;;;;4790271;29;20099;-85
2022/03/27 07:31:21;;;;;;;36.83;9.73;;;7.20;99.90;;;;;;4788502;29;20057;-85
2022/03/27 07:33:48;;;;;;;38.63;9.90;;;7.20;99.90;;;;;;4789613;29;20035;-86
2022/03/27 07:36:13;;;;;;;39.40;10.73;;;7.30;99.90;;;;;;4806596;29;20072;-84
2022/03/27 07:38:39;;;;;;;39.23;10.90;;;7.30;99.90;;;;;;4805259;29;20042;-85
2022/03/27 07:41:05;;;;;;;27.97;10.40;;;7.30;99.90;;;;;;4774550;29;20133;-84
2022/03/27 07:43:32;;;;;;;41.47;11.67;;;7.30;99.90;;;;;;4803650;29;20085;-85
2022/03/27 07:45:59;;;;;;;43.33;11.57;;;7.40;99.90;;;;;;4804700;29;20499;-84
2022/03/27 07:48:26;;;;;;;37.10;9.80;;;7.40;99.90;;;;;;4804610;29;20050;-84
2022/03/27 07:50:56;;;;;;;33.57;11.07;;;7.40;99.90;;;;;;4803235;29;20082;-87
2022/03/27 07:53:22;;;;;;;46.07;10.13;;;7.40;99.90;;;;;;4787669;29;20050;-84
2022/03/27 07:55:48;;;;;;;37.43;10.17;;;7.40;99.90;;;;;;4786947;29;20058;-84
2022/03/27 07:58:14;;;;;;;39.03;11.17;;;7.40;99.90;;;;;;4805547;29;20046;-85
2022/03/27 08:00:40;;;;;;;44.13;12.00;;;7.40;99.90;;;;;;4789041;29;20061;-86
2022/03/27 08:03:08;;;;;;;42.90;10.87;;;7.50;99.90;;;;;;4788383;29;20042;-85
2022/03/27 08:05:34;;;;;;;42.33;10.53;;;7.60;99.90;;;;;;4803976;29;20046;-86
2022/03/27 08:07:59;;;;;;;41.03;10.03;;;7.70;99.90;;;;;;4779528;29;20058;-83
2022/03/27 08:10:25;;;;;;;35.77;9.60;;;7.80;99.90;;;;;;4796461;29;20049;-83
2022/03/27 08:12:54;;;;;;;37.20;10.00;;;7.80;99.90;;;;;;4817647;29;20809;-84
2022/03/27 08:15:21;;;;;;;41.30;10.43;;;8.00;99.90;;;;;;4802574;29;20087;-83
2022/03/27 08:17:51;;;;;;;40.07;11.23;;;8.10;99.90;;;;;;4803148;29;20506;-84
2022/03/27 08:20:16;;;;;;;40.13;10.23;;;8.30;99.90;;;;;;4795498;29;20521;-83
2022/03/27 08:22:43;;;;;;;37.77;10.83;;;8.40;99.90;;;;;;4789921;29;20059;-87
2022/03/27 08:25:11;;;;;;;38.47;10.47;;;8.60;99.90;;;;;;4819157;29;20043;-85
2022/03/27 08:27:37;;;;;;;31.73;9.13;;;8.50;99.90;;;;;;4807471;29;20042;-85
2022/03/27 08:30:03;;;;;;;33.73;10.00;;;8.40;99.90;;;;;;4807547;29;20049;-83
2022/03/27 08:32:29;;;;;;;33.77;9.57;;;8.40;99.90;;;;;;4800899;29;20046;-84
2022/03/27 08:34:55;;;;;;;34.23;10.73;;;8.30;99.90;;;;;;4789428;29;20506;-83
2022/03/27 08:37:21;;;;;;;38.07;9.73;;;8.20;99.90;;;;;;4812574;29;20509;-84
2022/03/27 08:39:47;;;;;;;34.13;10.13;;;8.20;99.90;;;;;;4782241;29;20042;-83
2022/03/27 08:42:16;;;;;;;41.17;11.10;;;8.50;99.90;;;;;;4796573;29;20038;-84
2022/03/27 08:44:42;;;;;;;36.03;11.20;;;8.60;99.90;;;;;;4806014;29;20047;-83
2022/03/27 08:47:23;;;;;;;35.27;10.80;;;8.70;99.90;;;;;;4814615;29;20394;-84
2022/03/27 08:49:58;;;;;;;34.90;11.00;;;8.80;99.90;;;;;;4801657;29;20045;-84
2022/03/27 08:52:50;;;;;;;43.63;11.77;;;9.00;99.90;;;;;;4798212;29;20132;-84
2022/03/27 08:55:31;;;;;;;39.65;12.02;;;9.10;99.90;;;;;;4803336;29;20054;-85
2022/03/27 08:58:00;;;;;;;34.37;11.13;;;9.20;99.90;;;;;;4807450;29;20046;-86
2022/03/27 09:00:29;;;;;;;39.00;11.13;;;9.30;99.90;;;;;;4809460;29;20049;-86
2022/03/27 09:02:56;;;;;;;36.00;10.40;;;9.50;99.90;;;;;;4793184;29;20057;-85
2022/03/27 09:05:23;;;;;;;34.00;10.17;;;9.70;99.90;;;;;;4799053;29;20155;-85
2022/03/27 09:07:50;;;;;;;37.60;10.37;;;9.70;99.90;;;;;;4804926;29;20507;-85
2022/03/27 09:10:17;;;;;;;32.57;11.20;;;9.70;99.90;;;;;;4809762;29;20046;-84
2022/03/27 09:12:44;;;;;;;35.33;9.67;;;9.70;99.90;;;;;;4782907;29;20042;-86
2022/03/27 09:15:11;;;;;;;29.00;9.83;;;9.90;99.90;;;;;;4812541;29;20113;-86
2022/03/27 09:17:59;;;;;;;33.17;9.10;;;9.90;99.90;;;;;;4827354;29;20049;-86
2022/03/27 09:20:35;;;;;;;29.57;8.73;;;9.90;99.90;;;;;;4808027;29;20050;-84
2022/03/27 09:23:21;;;;;;;31.33;8.30;;;10.00;99.90;;;;;;4819230;29;20057;-87
2022/03/27 09:25:59;;;;;;;32.20;9.87;;;10.00;99.90;;;;;;4809010;29;20046;-86
2022/03/27 09:28:39;;;;;;;29.77;9.83;;;10.10;99.90;;;;;;4812955;29;20042;-86
2022/03/27 09:31:26;;;;;;;35.10;10.47;;;10.10;99.90;;;;;;4808320;29;20041;-87
2022/03/27 09:34:02;;;;;;;38.20;9.00;;;10.20;99.90;;;;;;4809631;29;20042;-86
2022/03/27 09:36:33;;;;;;;27.27;8.80;;;10.20;99.90;;;;;;4808439;29;20042;-87
2022/03/27 09:39:01;;;;;;;32.00;9.07;;;10.30;99.90;;;;;;4823473;29;20109;-87
2022/03/27 09:41:39;;;;;;;39.63;9.17;;;10.50;99.90;;;;;;4812649;29;20566;-84
2022/03/27 09:44:11;;;;;;;28.33;8.90;;;10.60;99.90;;;;;;4826728;29;20037;-85
2022/03/27 09:46:59;;;;;;;31.13;8.47;;;10.60;99.90;;;;;;4812569;29;20121;-88
2022/03/27 09:49:30;;;;;;;35.57;9.43;;;10.60;99.90;;;;;;4809496;29;20087;-88
2022/03/27 09:52:08;;;;;;;35.67;8.80;;;10.70;99.90;;;;;;4808825;29;20839;-86
2022/03/27 09:54:59;;;;;;;28.87;9.03;;;10.70;99.90;;;;;;4820402;29;20054;-85
2022/03/27 09:57:27;;;;;;;25.20;8.17;;;10.90;99.90;;;;;;4822894;29;20111;-86
2022/03/27 09:59:55;;;;;;;33.47;8.67;;;11.10;99.90;;;;;;4826178;29;20050;-87
2022/03/27 10:02:30;;;;;;;33.67;8.10;;;11.10;99.90;;;;;;4816803;29;20041;-86
2022/03/27 10:04:57;;;;;;;30.73;8.90;;;11.10;99.90;;;;;;4809044;29;20037;-85
2022/03/27 10:07:25;;;;;;;36.03;8.00;;;11.20;99.90;;;;;;4811053;29;20095;-87
2022/03/27 10:09:55;;;;;;;28.83;9.17;;;11.20;99.90;;;;;;4803263;29;20053;-84
2022/03/27 10:12:53;;;;;;;24.17;8.47;;;11.20;99.90;;;;;;4810447;29;20056;-84
2022/03/27 10:15:25;;;;;;;34.33;8.67;;;11.20;99.90;;;;;;4801096;29;20048;-84
2022/03/27 10:18:01;;;;;;;23.95;7.57;;;11.30;99.90;;;;;;4817148;29;20490;-85
2022/03/27 10:20:37;;;;;;;25.97;8.30;;;11.40;99.90;;;;;;4819416;29;20057;-88
2022/03/27 10:23:09;;;;;;;26.67;8.50;;;11.50;99.90;;;;;;4819588;29;20042;-86
2022/03/27 10:25:40;;;;;;;27.63;8.03;;;11.50;99.90;;;;;;4804313;29;20402;-86
2022/03/27 10:28:07;;;;;;;30.90;8.70;;;11.50;99.90;;;;;;4801061;29;20038;-86
2022/03/27 10:30:33;;;;;;;24.23;7.50;;;11.50;99.90;;;;;;4786954;29;20072;-87
2022/03/27 10:33:01;;;;;;;27.40;7.70;;;11.50;99.90;;;;;;4803722;29;20045;-86
2022/03/27 10:35:44;;;;;;;24.60;7.33;;;11.60;99.90;;;;;;4814616;29;20077;-85
2022/03/27 10:38:45;;;;;;;31.10;8.20;;;11.70;99.90;;;;;;4800495;29;20042;-88
2022/03/27 10:41:13;;;;;;;27.93;8.13;;;11.80;99.90;;;;;;4816557;29;20056;-84
2022/03/27 10:43:51;;;;;;;22.63;7.40;;;12.00;99.90;;;;;;4810554;29;20393;-88
2022/03/27 10:46:25;;;;;;;21.13;6.83;;;12.10;99.90;;;;;;4803348;29;20137;-85
2022/03/27 10:48:53;;;;;;;22.50;7.57;;;12.20;99.90;;;;;;4818820;29;20065;-86
2022/03/27 10:51:25;;;;;;;31.00;8.23;;;12.30;99.90;;;;;;4815353;29;20065;-85
2022/03/27 10:54:01;;;;;;;;;;;12.30;99.90;;;;;;4817139;29;20053;-84
2022/03/27 10:56:43;;;;;;;21.10;7.60;;;12.40;99.90;;;;;;4815678;29;19968;-85
2022/03/27 10:59:13;;;;;;;24.45;7.53;;;12.50;99.90;;;;;;4811018;29;20046;-85
2022/03/27 11:01:41;;;;;;;19.67;7.30;;;12.50;99.90;;;;;;4819334;29;20831;-85
2022/03/27 11:04:18;;;;;;;24.53;7.47;;;12.60;99.90;;;;;;4814785;29;20685;-86
2022/03/27 11:06:50;;;;;;;21.60;7.00;;;12.80;99.90;;;;;;4799748;29;20041;-85
2022/03/27 11:09:35;;;;;;;21.67;7.50;;;12.80;99.90;;;;;;4801026;29;20830;-85
2022/03/27 11:12:24;;;;;;;30.60;7.23;;;12.90;94.20;;;;;;4829565;29;20056;-85
2022/03/27 11:14:56;;;;;;;28.50;6.77;;;13.20;93.40;;;;;;4832219;29;20082;-86
2022/03/27 11:18:00;;;;;;;19.42;6.15;;;13.30;99.30;;;;;;4815110;29;20049;-85
2022/03/27 11:20:25;;;;;;;24.03;6.90;;;13.40;93.80;;;;;;4798593;29;20176;-85
2022/03/27 11:22:57;;;;;;;19.43;7.13;;;13.50;98.30;;;;;;4800111;29;20815;-86
2022/03/27 11:25:33;;;;;;;20.15;6.53;;;13.50;91.90;;;;;;4785781;29;20065;-86
2022/03/27 11:28:08;;;;;;;20.70;7.03;;;13.40;97.70;;;;;;4830087;29;20101;-85
2022/03/27 11:30:40;;;;;;;28.27;7.60;;;13.50;95.30;;;;;;4799159;29;20041;-84
2022/03/27 11:33:29;;;;;;;28.67;7.57;;;13.70;93.80;;;;;;4831926;29;20054;-86
2022/03/27 11:36:10;;;;;;;24.70;7.53;;;13.80;92.20;;;;;;4800472;29;20102;-84
2022/03/27 11:38:51;;;;;;;20.55;6.53;;;13.80;90.10;;;;;;4804555;29;20469;-86
2022/03/27 11:41:46;;;;;;;19.60;5.80;;;13.80;81.90;;;;;;4816011;29;20054;-87
2022/03/27 11:47:33;;;;;;;26.60;7.20;;;13.70;84.00;;;;;;4807097;29;20054;-86
2022/03/27 11:49:59;;;;;;;22.00;6.73;;;13.60;88.20;;;;;;4795350;29;20054;-85
2022/03/27 11:52:25;;;;;;;18.40;6.43;;;13.90;88.00;;;;;;4816955;29;20042;-84
2022/03/27 11:55:11;;;;;;;20.80;6.10;;;14.10;88.20;;;;;;4815164;29;20053;-86
2022/03/27 12:00:51;;;;;;;24.50;7.03;;;14.20;75.30;;;;;;4805158;29;20051;-85
2022/03/27 12:03:23;;;;;;;23.63;6.43;;;14.20;81.10;;;;;;4785259;29;20400;-86
2022/03/27 12:05:50;;;;;;;23.70;5.70;;;14.30;76.90;;;;;;4806669;29;20038;-86
2022/03/27 12:08:19;;;;;;;21.13;5.70;;;14.40;78.60;;;;;;4812062;29;20054;-86
2022/03/27 12:10:49;;;;;;;21.10;5.90;;;14.40;75.30;;;;;;4813190;29;20073;-85
2022/03/27 12:13:15;;;;;;;19.23;5.40;;;14.30;74.40;;;;;;4809831;29;20161;-87
2022/03/27 12:15:46;;;;;;;22.20;5.57;;;14.40;74.40;;;;;;4810149;29;20406;-85
2022/03/27 12:18:13;;;;;;;18.90;7.20;;;14.40;70.70;;;;;;4821930;29;20053;-86
2022/03/27 12:20:41;;;;;;;17.20;5.67;;;14.30;72.50;;;;;;4794830;29;20133;-89
2022/03/27 12:23:20;;;;;;;25.83;6.60;;;14.30;71.80;;;;;;4824873;29;20547;-88
2022/03/27 12:26:00;;;;;;;18.03;5.70;;;14.30;68.10;;;;;;4825151;29;20106;-84
2022/03/27 12:31:25;;;;;;;20.10;5.70;;;14.50;71.30;;;;;;4810403;29;20051;-86
2022/03/27 12:33:54;;;;;;;14.98;5.82;;;14.40;66.50;;;;;;4816524;29;20557;-86
2022/03/27 12:36:19;;;;;;;22.23;5.60;;;14.40;68.30;;;;;;4809117;29;20039;-88
2022/03/27 12:38:46;;;;;;;16.43;4.80;;;14.40;69.20;;;;;;4810839;29;20082;-86
2022/03/27 12:41:11;;;;;;;22.67;5.67;;;14.40;68.70;;;;;;4820862;29;20048;-88
2022/03/27 12:43:42;;;;;;;23.60;6.27;;;14.60;70.00;;;;;;4806721;29;20475;-86
2022/03/27 12:46:20;;;;;;;21.27;5.60;;;14.70;68.60;;;;;;4810300;29;20855;-86
2022/03/27 12:49:00;;;;;;;14.50;5.67;;;14.80;67.00;;;;;;4827810;29;20049;-86
2022/03/27 12:51:26;;;;;;;19.90;5.20;;;14.80;63.50;;;;;;4827811;29;20129;-86
2022/03/27 12:54:07;;;;;;;16.83;5.40;;;14.70;67.10;;;;;;4812082;29;20051;-86
2022/03/27 12:56:34;;;;;;;20.47;5.37;;;14.70;64.80;;;;;;4786960;29;20045;-87
2022/03/27 12:59:21;;;;;;;20.13;4.95;;;14.70;66.20;;;;;;4807632;29;20275;-86
2022/03/27 13:01:47;;;;;;;18.75;4.90;;;14.80;64.40;;;;;;4795443;29;20058;-86
2022/03/27 13:04:13;;;;;;;15.40;4.45;;;14.90;64.90;;;;;;4810687;29;20042;-85
2022/03/27 13:06:42;;;;;;;20.58;5.55;;;14.90;64.20;;;;;;4795346;29;20507;-88